Allenspark, Colorado
Current Conditions -  °F | °C
As of 2:55 AM on Wednesday 26 Nov 2014 (Local Time) from KBDU Reporting Station
Light Snow Light Snow  
Wind Chill: 25°   Ceiling: 2200
Heat Index: 30°   Visibility: 10mi
Dew Point: 27°   Wind: 5mph
Humidity: 86%   Direction: 60°ENE
Pressure: 30.17"   Gusts: NA
Location:  40.19°N, 105.53°W
Report Text: KBDU 260955Z AUTO 06004KT 10SM -SN SCT010 OVC022 M01/M03 A3017 RMK AO2
Loading
Personal Weather Stations






























Interactive Weather Map New forecast layout! Learn more

10-Day Weather Forecast

Advertisements
Track Severe Weather on mobile